Time;durP1;ratioP1;P1;durP2;ratioP2;P2;SDS_P1;SDS_P2;PMS_P1;PMS_P2;Temp;Humidity;BMP_temperature;BMP_pressure;BME280_temperature;BME280_humidity;BME280_pressure;Samples;Min_cycle;Max_cycle;Signal;HPM_P1;HPM_P2
2022/10/11 00:00:19;;;;;;;6.40;5.90;;;16.40;1.00;;;;;;5043284;28;20572;-82
2022/10/11 00:02:48;;;;;;;6.77;6.27;;;16.30;14.50;;;;;;5038968;28;21341;-82
2022/10/11 00:05:18;;;;;;;5.77;5.27;;;16.40;33.00;;;;;;5038809;28;20493;-80
2022/10/11 00:07:46;;;;;;;6.43;5.50;;;16.30;95.60;;;;;;5036121;28;20487;-79
2022/10/11 00:10:14;;;;;;;8.70;5.80;;;16.30;76.80;;;;;;5045688;28;20637;-79
2022/10/11 00:12:42;;;;;;;7.17;5.60;;;16.30;99.90;;;;;;5044289;28;20508;-79
2022/10/11 00:15:13;;;;;;;5.60;5.20;;;16.20;40.20;;;;;;5039154;28;20446;-79
2022/10/11 00:17:41;;;;;;;8.10;6.20;;;16.20;76.10;;;;;;5038629;28;20487;-79
2022/10/11 00:20:10;;;;;;;7.23;6.63;;;16.20;99.90;;;;;;5042828;28;20573;-79
2022/10/11 00:22:40;;;;;;;5.80;5.30;;;16.20;94.80;;;;;;5035643;28;20463;-81
2022/10/11 00:25:11;;;;;;;5.63;5.30;;;16.10;99.90;;;;;;5049985;28;20466;-81
2022/10/11 00:27:39;;;;;;;5.63;5.40;;;16.10;1.00;;;;;;5044524;28;20553;-81
2022/10/11 00:30:08;;;;;;;7.83;6.63;;;16.10;99.90;;;;;;5040375;28;21179;-82
2022/10/11 00:32:37;;;;;;;6.97;6.57;;;16.10;99.90;;;;;;5034827;28;20462;-81
2022/10/11 00:35:07;;;;;;;9.80;6.43;;;16.10;99.90;;;;;;5041875;28;20496;-81
2022/10/11 00:37:37;;;;;;;6.27;5.77;;;16.10;1.00;;;;;;5038413;28;20567;-81
2022/10/11 00:40:13;;;;;;;6.27;5.63;;;16.10;1.00;;;;;;5045010;28;20963;-82
2022/10/11 00:42:41;;;;;;;6.27;5.83;;;16.10;99.90;;;;;;5037722;28;20935;-82
2022/10/11 00:45:46;;;;;;;6.77;6.20;;;16.10;99.90;;;;;;5053587;28;20453;-81
2022/10/11 00:48:19;;;;;;;6.03;5.40;;;16.10;99.90;;;;;;5038606;28;20552;-81
2022/10/11 00:50:47;;;;;;;5.60;5.27;;;16.10;99.90;;;;;;5041725;28;20463;-81
2022/10/11 00:53:15;;;;;;;7.17;6.43;;;16.10;99.90;;;;;;5039046;28;20538;-81
2022/10/11 00:55:51;;;;;;;7.77;7.07;;;16.10;99.90;;;;;;5043167;28;20457;-81
2022/10/11 00:58:20;;;;;;;6.90;6.10;;;16.10;99.90;;;;;;5036052;28;21169;-81
2022/10/11 01:00:48;;;;;;;7.10;6.40;;;16.10;99.90;;;;;;5040462;28;20469;-82
2022/10/11 01:03:19;;;;;;;7.60;7.00;;;16.20;99.90;;;;;;5039664;28;20544;-81
2022/10/11 01:05:48;;;;;;;7.97;5.83;;;16.20;72.90;;;;;;5044892;28;20628;-83
2022/10/11 01:08:16;;;;;;;6.00;5.60;;;16.20;99.90;;;;;;5042328;28;20483;-82
2022/10/11 01:10:45;;;;;;;7.60;6.07;;;16.20;99.90;;;;;;5040824;28;20447;-81
2022/10/11 01:13:25;;;;;;;6.33;5.80;;;16.20;1.00;;;;;;5070487;28;20491;-81
2022/10/11 01:15:59;;;;;;;9.90;5.87;;;16.20;99.90;;;;;;5041841;28;20474;-81
2022/10/11 01:18:33;;;;;;;6.00;5.53;;;16.30;77.20;;;;;;5045281;28;20483;-81
2022/10/11 01:21:10;;;;;;;6.30;5.57;;;16.30;6.00;;;;;;5042506;28;20454;-81
2022/10/11 01:24:05;;;;;;;6.47;5.97;;;16.20;99.90;;;;;;5046677;28;20472;-81
2022/10/11 01:27:14;;;;;;;8.17;5.83;;;16.20;99.90;;;;;;5046943;28;20477;-81
2022/10/11 01:29:54;;;;;;;6.40;5.50;;;16.30;99.90;;;;;;5036928;28;20473;-82
2022/10/11 01:32:32;;;;;;;8.23;6.60;;;16.20;99.90;;;;;;5051699;28;20490;-81
2022/10/11 01:35:09;;;;;;;7.83;7.23;;;16.20;99.90;;;;;;5046861;28;20490;-80
2022/10/11 01:37:40;;;;;;;8.20;6.73;;;16.30;99.90;;;;;;5042308;28;21193;-81
2022/10/11 01:40:12;;;;;;;7.83;7.03;;;16.30;99.90;;;;;;5047186;28;20482;-81
2022/10/11 01:42:42;;;;;;;7.83;6.83;;;16.30;99.90;;;;;;5050305;28;20462;-81
2022/10/11 01:45:15;;;;;;;7.97;6.23;;;16.20;99.90;;;;;;5042903;28;20462;-81
2022/10/11 01:47:45;;;;;;;7.60;6.90;;;16.30;99.90;;;;;;5040923;28;20440;-81
2022/10/11 01:50:39;;;;;;;7.07;6.43;;;16.30;99.90;;;;;;5047317;28;20474;-81
2022/10/11 01:53:31;;;;;;;7.50;6.83;;;16.20;99.90;;;;;;5047763;28;20981;-81
2022/10/11 01:56:09;;;;;;;7.03;6.10;;;16.30;99.90;;;;;;5048631;28;20475;-80
2022/10/11 01:58:48;;;;;;;7.60;7.00;;;16.30;99.90;;;;;;5047414;28;20489;-81
2022/10/11 02:01:24;;;;;;;7.80;7.00;;;16.30;99.90;;;;;;5042518;28;20541;-81
2022/10/11 02:04:01;;;;;;;7.37;6.73;;;16.30;99.90;;;;;;5046531;28;20542;-81
2022/10/11 02:06:35;;;;;;;7.53;6.93;;;16.20;99.90;;;;;;5043324;28;20501;-80
2022/10/11 02:09:13;;;;;;;12.50;6.80;;;16.30;99.90;;;;;;5042894;28;20562;-80
2022/10/11 02:11:42;;;;;;;6.80;6.30;;;16.30;74.20;;;;;;5050230;28;20556;-81
2022/10/11 02:14:12;;;;;;;7.90;7.20;;;16.20;1.00;;;;;;5046236;28;20481;-81
2022/10/11 02:16:43;;;;;;;9.80;7.60;;;16.20;98.10;;;;;;5044216;28;20585;-81
2022/10/11 02:19:18;;;;;;;7.90;7.00;;;16.10;99.90;;;;;;5044819;28;20492;-82
2022/10/11 02:21:51;;;;;;;7.50;6.80;;;16.10;99.90;;;;;;5040866;28;20547;-81
2022/10/11 02:24:23;;;;;;;7.80;7.30;;;16.10;99.90;;;;;;5048714;28;20469;-81
2022/10/11 02:26:55;;;;;;;8.07;7.47;;;16.10;99.90;;;;;;5045075;28;20498;-81
2022/10/11 02:29:27;;;;;;;8.00;7.33;;;15.90;99.90;;;;;;5042059;28;20514;-82
2022/10/11 02:31:58;;;;;;;9.27;7.03;;;15.90;99.90;;;;;;5041804;28;20545;-81
2022/10/11 02:34:31;;;;;;;7.63;6.97;;;16.00;99.90;;;;;;5041424;28;20520;-82
2022/10/11 02:37:05;;;;;;;8.53;7.63;;;16.00;99.90;;;;;;5047553;28;20452;-81
2022/10/11 02:39:39;;;;;;;10.80;7.70;;;15.90;99.90;;;;;;5043243;28;21004;-82
2022/10/11 02:42:14;;;;;;;8.00;7.30;;;15.90;99.90;;;;;;5044086;28;20835;-82
2022/10/11 02:44:45;;;;;;;8.90;8.20;;;15.90;99.90;;;;;;5048377;28;20562;-82
2022/10/11 02:47:14;;;;;;;8.37;7.73;;;16.00;99.90;;;;;;5043857;28;20549;-81
2022/10/11 02:49:43;;;;;;;9.27;8.40;;;15.90;99.90;;;;;;5040785;28;20476;-81
2022/10/11 02:52:11;;;;;;;10.97;8.37;;;16.00;99.90;;;;;;5044221;28;20553;-82
2022/10/11 02:54:39;;;;;;;9.13;8.40;;;16.00;99.90;;;;;;5047802;28;20456;-81
2022/10/11 02:57:07;;;;;;;9.23;8.33;;;15.90;99.90;;;;;;5044313;28;20457;-81
2022/10/11 02:59:35;;;;;;;10.23;8.73;;;16.00;99.90;;;;;;5047459;28;20606;-81
2022/10/11 03:02:03;;;;;;;9.30;8.63;;;16.00;99.90;;;;;;5046616;28;20457;-81
2022/10/11 03:04:31;;;;;;;9.40;8.50;;;16.00;99.90;;;;;;5044795;28;20469;-81
2022/10/11 03:07:01;;;;;;;9.20;8.50;;;15.90;99.90;;;;;;5045838;28;20847;-80
2022/10/11 03:09:29;;;;;;;9.63;8.60;;;15.90;99.90;;;;;;5043431;28;20850;-81
2022/10/11 03:11:57;;;;;;;10.73;8.70;;;15.90;99.90;;;;;;5046497;28;20451;-81
2022/10/11 03:14:25;;;;;;;10.23;9.43;;;15.90;99.90;;;;;;5045225;28;20467;-81
2022/10/11 03:16:53;;;;;;;11.60;10.43;;;16.00;99.90;;;;;;5044706;28;20504;-81
2022/10/11 03:19:22;;;;;;;10.13;9.30;;;16.00;99.90;;;;;;5048725;28;20582;-82
2022/10/11 03:21:51;;;;;;;13.23;10.40;;;16.00;99.90;;;;;;5045569;28;20457;-81
2022/10/11 03:24:20;;;;;;;14.03;11.90;;;16.00;99.90;;;;;;5048727;28;20542;-80
2022/10/11 03:26:48;;;;;;;15.87;14.00;;;16.00;99.90;;;;;;5046280;28;20833;-81
2022/10/11 03:29:16;;;;;;;15.73;14.27;;;16.10;1.00;;;;;;5048185;28;20565;-81
2022/10/11 03:31:44;;;;;;;16.37;14.67;;;16.00;99.90;;;;;;5044968;28;20454;-81
2022/10/11 03:34:12;;;;;;;17.60;15.27;;;16.00;93.10;;;;;;5040373;28;20524;-81
2022/10/11 03:36:40;;;;;;;16.70;14.93;;;16.00;99.90;;;;;;5048574;28;20498;-81
2022/10/11 03:39:09;;;;;;;22.50;15.50;;;16.00;99.90;;;;;;5041674;28;20518;-80
2022/10/11 03:41:38;;;;;;;20.33;15.13;;;16.00;99.90;;;;;;5048403;28;20461;-82
2022/10/11 03:44:06;;;;;;;15.93;14.20;;;16.00;64.20;;;;;;5047704;28;20505;-80
2022/10/11 03:46:34;;;;;;;15.17;13.63;;;16.00;99.90;;;;;;5047376;28;20501;-80
2022/10/11 03:49:02;;;;;;;18.90;14.73;;;15.80;99.90;;;;;;5039350;28;20485;-80
2022/10/11 03:51:31;;;;;;;23.97;14.83;;;15.90;99.90;;;;;;5045669;28;20455;-81
2022/10/11 03:53:59;;;;;;;15.20;13.57;;;15.80;99.90;;;;;;5048578;28;20454;-81
2022/10/11 03:56:27;;;;;;;15.60;14.10;;;15.90;99.90;;;;;;5046747;28;20488;-80
2022/10/11 03:58:56;;;;;;;17.20;15.17;;;15.80;99.90;;;;;;5039952;28;20486;-80
2022/10/11 04:01:24;;;;;;;16.03;14.47;;;15.90;99.90;;;;;;5037009;28;20573;-80
2022/10/11 04:03:55;;;;;;;19.83;15.23;;;15.90;99.90;;;;;;5045121;28;20529;-80
2022/10/11 04:06:23;;;;;;;23.23;14.77;;;15.90;42.70;;;;;;5044626;28;20459;-80
2022/10/11 04:08:51;;;;;;;16.27;14.57;;;15.90;1.00;;;;;;5047150;28;20590;-80
2022/10/11 04:11:19;;;;;;;16.33;14.73;;;15.90;1.00;;;;;;5045642;28;20462;-80
2022/10/11 04:13:47;;;;;;;20.13;15.50;;;15.90;1.00;;;;;;5038536;28;20490;-80
2022/10/11 04:16:17;;;;;;;17.27;15.57;;;15.80;99.90;;;;;;5047950;28;20497;-84
2022/10/11 04:18:45;;;;;;;16.60;15.00;;;15.80;99.90;;;;;;5051384;28;20554;-85
2022/10/11 04:21:13;;;;;;;20.37;15.43;;;15.80;99.00;;;;;;5042122;28;20501;-84
2022/10/11 04:23:41;;;;;;;17.00;15.17;;;15.80;99.90;;;;;;5046621;28;20520;-84
2022/10/11 04:26:09;;;;;;;22.13;15.93;;;15.80;99.90;;;;;;5053605;28;20500;-84
2022/10/11 04:28:37;;;;;;;17.67;15.70;;;15.80;99.90;;;;;;5052153;28;20459;-85
2022/10/11 04:31:06;;;;;;;17.27;15.50;;;15.80;10.10;;;;;;5038685;28;20962;-88
2022/10/11 04:33:36;;;;;;;17.90;16.10;;;15.70;32.20;;;;;;5039824;28;20447;-85
2022/10/11 04:36:05;;;;;;;20.70;16.20;;;15.60;99.90;;;;;;5044148;28;20953;-80
2022/10/11 04:38:33;;;;;;;20.50;16.10;;;15.60;99.90;;;;;;5047625;28;20482;-81
2022/10/11 04:41:08;;;;;;;19.37;16.40;;;15.60;99.90;;;;;;5045439;28;20536;-80
2022/10/11 04:43:37;;;;;;;18.10;15.70;;;15.60;99.90;;;;;;5036521;28;20466;-80
2022/10/11 04:46:06;;;;;;;20.27;15.80;;;15.50;99.90;;;;;;5047202;28;20462;-81
2022/10/11 04:48:35;;;;;;;18.73;16.53;;;15.60;99.90;;;;;;5052777;28;20484;-82
2022/10/11 04:51:04;;;;;;;18.30;16.47;;;15.60;99.90;;;;;;5046043;28;20462;-81
2022/10/11 04:53:32;;;;;;;18.50;16.67;;;15.60;99.90;;;;;;5051301;28;20469;-81
2022/10/11 04:56:02;;;;;;;22.00;16.03;;;15.60;99.90;;;;;;5050683;28;20466;-81
2022/10/11 04:58:33;;;;;;;19.27;17.33;;;15.60;99.90;;;;;;5050114;28;20488;-81
2022/10/11 05:01:02;;;;;;;18.63;16.70;;;15.60;99.90;;;;;;5048956;28;20522;-82
2022/10/11 05:03:30;;;;;;;17.97;16.03;;;15.60;99.90;;;;;;5048163;28;20454;-81
2022/10/11 05:05:59;;;;;;;20.63;16.97;;;15.70;99.90;;;;;;5043725;28;20525;-81
2022/10/11 05:08:33;;;;;;;21.87;15.93;;;15.70;1.00;;;;;;5049244;28;20473;-81
2022/10/11 05:11:02;;;;;;;18.17;16.37;;;15.60;99.90;;;;;;5042853;28;20981;-81
2022/10/11 05:13:31;;;;;;;22.60;16.60;;;15.60;99.90;;;;;;5047463;28;20562;-80
2022/10/11 05:16:00;;;;;;;18.50;16.60;;;15.60;99.90;;;;;;5043320;28;20506;-80
2022/10/11 05:18:28;;;;;;;20.77;17.20;;;15.80;31.50;;;;;;5044959;28;20474;-81
2022/10/11 05:21:03;;;;;;;21.30;18.30;;;15.70;54.90;;;;;;5035235;28;20478;-80
2022/10/11 05:23:33;;;;;;;17.60;15.73;;;15.70;1.00;;;;;;5050513;28;20466;-82
2022/10/11 05:26:01;;;;;;;19.87;15.90;;;15.70;1.00;;;;;;5058949;28;20468;-81
2022/10/11 05:28:30;;;;;;;20.70;17.70;;;15.70;99.90;;;;;;5052426;28;20477;-81
2022/10/11 05:30:59;;;;;;;23.27;16.33;;;15.70;99.90;;;;;;5046674;28;20446;-82
2022/10/11 05:33:27;;;;;;;23.00;17.03;;;15.60;99.90;;;;;;5050392;28;20494;-81
2022/10/11 05:35:55;;;;;;;21.00;17.87;;;15.60;99.90;;;;;;5051205;28;20903;-81
2022/10/11 05:38:25;;;;;;;19.97;16.47;;;15.70;1.00;;;;;;5051554;28;20537;-81
2022/10/11 05:40:53;;;;;;;21.73;18.37;;;15.60;99.90;;;;;;5045496;28;20474;-82
2022/10/11 05:43:21;;;;;;;23.73;17.50;;;15.60;99.90;;;;;;5038980;28;20885;-82
2022/10/11 05:45:49;;;;;;;24.77;18.90;;;15.60;1.00;;;;;;5038241;28;20482;-81
2022/10/11 05:48:17;;;;;;;22.73;19.40;;;15.70;6.20;;;;;;5041403;28;20467;-80
2022/10/11 05:50:45;;;;;;;21.77;18.90;;;15.70;1.00;;;;;;5047157;28;21190;-81
2022/10/11 05:53:14;;;;;;;21.63;17.10;;;15.70;1.00;;;;;;5048443;28;20477;-79
2022/10/11 05:55:44;;;;;;;21.27;17.97;;;15.60;99.90;;;;;;5049922;28;20886;-80
2022/10/11 05:58:16;;;;;;;18.87;17.03;;;15.60;99.90;;;;;;5045741;28;20814;-81
2022/10/11 06:00:44;;;;;;;21.93;18.60;;;15.70;74.70;;;;;;5043457;28;20493;-81
2022/10/11 06:03:13;;;;;;;19.50;17.60;;;15.60;26.70;;;;;;5047811;28;20492;-80
2022/10/11 06:05:42;;;;;;;20.60;18.37;;;15.60;99.90;;;;;;5049793;28;20450;-81
2022/10/11 06:08:10;;;;;;;22.67;17.87;;;15.60;99.90;;;;;;5046118;28;20458;-81
2022/10/11 06:10:39;;;;;;;21.27;16.97;;;15.70;1.00;;;;;;5049749;28;20450;-81
2022/10/11 06:13:09;;;;;;;20.77;17.40;;;15.70;99.90;;;;;;5039124;28;20786;-81
2022/10/11 06:15:39;;;;;;;25.17;18.50;;;15.60;1.00;;;;;;5033003;28;20454;-81
2022/10/11 06:18:07;;;;;;;27.63;19.20;;;15.60;1.00;;;;;;5048661;28;20490;-80
2022/10/11 06:20:36;;;;;;;28.40;22.27;;;15.70;1.00;;;;;;5046768;28;21038;-81
2022/10/11 06:23:04;;;;;;;25.13;18.33;;;15.60;1.00;;;;;;5047225;28;20470;-81
2022/10/11 06:25:33;;;;;;;31.10;19.40;;;15.60;50.60;;;;;;5057722;28;20571;-82
2022/10/11 06:28:01;;;;;;;23.27;19.33;;;15.60;99.90;;;;;;5053653;28;20539;-82
2022/10/11 06:30:32;;;;;;;21.03;18.57;;;15.50;32.20;;;;;;5053086;28;20485;-81
2022/10/11 06:33:02;;;;;;;21.00;18.27;;;15.50;99.90;;;;;;5053876;28;20524;-81
2022/10/11 06:35:32;;;;;;;19.67;17.73;;;15.50;99.90;;;;;;5047078;28;20457;-81
2022/10/11 06:38:00;;;;;;;23.47;19.47;;;15.60;99.90;;;;;;5051389;28;20836;-80
2022/10/11 06:40:29;;;;;;;23.40;18.73;;;15.50;47.00;;;;;;5041908;28;20486;-81
2022/10/11 06:42:57;;;;;;;22.07;18.67;;;15.60;99.90;;;;;;5046044;28;20973;-81
2022/10/11 06:45:25;;;;;;;20.57;17.70;;;15.60;1.00;;;;;;5046560;28;20519;-80
2022/10/11 06:47:55;;;;;;;23.00;18.27;;;15.60;1.00;;;;;;5042381;28;20471;-80
2022/10/11 06:50:23;;;;;;;18.07;16.27;;;15.60;1.00;;;;;;5046529;28;20475;-81
2022/10/11 06:53:11;;;;;;;21.13;17.00;;;15.60;1.00;;;;;;5043216;28;20876;-81
2022/10/11 06:55:40;;;;;;;23.93;18.30;;;15.50;1.00;;;;;;5037132;28;20454;-80
2022/10/11 06:58:08;;;;;;;19.57;17.00;;;15.50;1.00;;;;;;5053305;28;21440;-81
2022/10/11 07:00:36;;;;;;;22.47;17.67;;;15.50;1.00;;;;;;5047646;28;20563;-81
2022/10/11 07:03:07;;;;;;;21.90;16.03;;;15.50;3.30;;;;;;5048118;28;20866;-80
2022/10/11 07:05:36;;;;;;;20.30;16.27;;;15.50;99.90;;;;;;5042104;28;20451;-80
2022/10/11 07:08:04;;;;;;;18.80;16.80;;;15.60;1.00;;;;;;5043810;28;20893;-81
2022/10/11 07:10:32;;;;;;;19.30;16.63;;;15.50;1.00;;;;;;5044410;28;20545;-80
2022/10/11 07:13:01;;;;;;;25.53;17.20;;;15.50;49.30;;;;;;5042861;28;20455;-81
2022/10/11 07:15:29;;;;;;;18.23;16.37;;;15.60;99.90;;;;;;5041257;28;20854;-81
2022/10/11 07:17:57;;;;;;;25.30;17.13;;;15.60;99.90;;;;;;5043497;28;20550;-80
2022/10/11 07:20:26;;;;;;;22.67;17.37;;;15.60;1.00;;;;;;5045840;28;20508;-80
2022/10/11 07:22:54;;;;;;;20.20;17.13;;;15.50;99.90;;;;;;5041770;28;20465;-81
2022/10/11 07:25:23;;;;;;;20.17;17.53;;;15.50;1.00;;;;;;5047656;28;20992;-80
2022/10/11 07:27:51;;;;;;;23.70;17.20;;;15.50;99.90;;;;;;5045205;28;20455;-81
2022/10/11 07:30:20;;;;;;;26.43;18.00;;;15.60;1.00;;;;;;5042692;28;21734;-81
2022/10/11 07:32:49;;;;;;;21.27;16.27;;;15.60;1.00;;;;;;5046597;28;20455;-82
2022/10/11 07:35:17;;;;;;;20.53;18.17;;;15.60;1.00;;;;;;5044527;28;20458;-82
2022/10/11 07:37:47;;;;;;;21.17;17.63;;;15.60;28.60;;;;;;5044180;28;21572;-81
2022/10/11 07:40:16;;;;;;;19.90;17.80;;;15.60;99.90;;;;;;5043176;28;20481;-80
2022/10/11 07:42:44;;;;;;;21.23;16.87;;;15.60;1.00;;;;;;5050941;28;20484;-80
2022/10/11 07:45:13;;;;;;;19.87;17.70;;;15.60;1.00;;;;;;5043982;28;20468;-80
2022/10/11 07:47:45;;;;;;;20.07;17.97;;;15.60;99.90;;;;;;5042999;28;20537;-81
2022/10/11 07:50:14;;;;;;;20.30;16.63;;;15.70;99.90;;;;;;5043804;28;20547;-81
2022/10/11 07:52:44;;;;;;;17.90;16.00;;;15.70;1.00;;;;;;5047890;28;20450;-82
2022/10/11 07:55:14;;;;;;;20.10;17.03;;;15.80;99.90;;;;;;5048649;28;21030;-82
2022/10/11 07:57:43;;;;;;;20.10;16.83;;;15.80;99.90;;;;;;5051003;28;20450;-83
2022/10/11 08:00:13;;;;;;;21.90;16.80;;;15.80;99.90;;;;;;5047144;28;20568;-82
2022/10/11 08:02:42;;;;;;;25.33;17.57;;;15.90;98.00;;;;;;5047802;28;20500;-80
2022/10/11 08:05:10;;;;;;;22.77;18.60;;;15.90;99.90;;;;;;5042441;28;20886;-80
2022/10/11 08:07:39;;;;;;;21.00;18.33;;;15.90;94.20;;;;;;5045878;28;20465;-80
2022/10/11 08:10:08;;;;;;;20.37;18.27;;;16.00;99.90;;;;;;5048243;28;20489;-81
2022/10/11 08:12:38;;;;;;;24.07;19.70;;;15.90;99.90;;;;;;5055925;28;20479;-81
2022/10/11 08:15:07;;;;;;;22.50;18.53;;;15.90;99.90;;;;;;5045647;28;21014;-81
2022/10/11 08:17:36;;;;;;;23.07;17.60;;;15.80;1.00;;;;;;5045886;28;20473;-81
2022/10/11 08:20:06;;;;;;;22.10;19.30;;;16.00;1.00;;;;;;5035739;28;20512;-82
2022/10/11 08:22:35;;;;;;;25.87;19.47;;;16.10;99.90;;;;;;5047139;28;20486;-81
2022/10/11 08:25:05;;;;;;;25.27;20.00;;;16.10;1.00;;;;;;5042174;28;20897;-81
2022/10/11 08:27:35;;;;;;;21.17;18.87;;;16.10;99.90;;;;;;5047064;28;20458;-81
2022/10/11 08:30:05;;;;;;;23.23;18.57;;;15.90;1.00;;;;;;5038986;28;20913;-81
2022/10/11 08:32:36;;;;;;;22.40;20.10;;;16.10;99.90;;;;;;5039503;28;20448;-81
2022/10/11 08:35:05;;;;;;;20.07;17.83;;;16.20;99.90;;;;;;5040427;28;20457;-82
2022/10/11 08:37:33;;;;;;;24.13;19.37;;;16.20;1.00;;;;;;5046844;28;20481;-81
2022/10/11 08:40:02;;;;;;;21.03;18.80;;;16.20;99.90;;;;;;5038546;28;20574;-81
2022/10/11 08:42:35;;;;;;;23.50;18.20;;;16.20;99.90;;;;;;5040400;28;20577;-81
2022/10/11 08:45:08;;;;;;;24.73;19.03;;;16.20;1.00;;;;;;5037300;28;20487;-81
2022/10/11 08:47:41;;;;;;;21.93;19.70;;;16.20;99.90;;;;;;5038382;28;20556;-81
2022/10/11 08:50:19;;;;;;;23.43;20.60;;;16.20;1.00;;;;;;5045096;28;20486;-82
2022/10/11 08:52:52;;;;;;;23.53;19.80;;;16.10;99.90;;;;;;5034987;28;20546;-81
2022/10/11 08:55:26;;;;;;;21.90;19.57;;;16.10;99.90;;;;;;5044192;28;20463;-81
2022/10/11 08:57:56;;;;;;;21.83;19.50;;;16.20;99.90;;;;;;5050000;28;20498;-80
2022/10/11 09:00:32;;;;;;;26.67;18.83;;;16.10;99.90;;;;;;5041118;28;20474;-82
2022/10/11 09:03:06;;;;;;;25.33;20.53;;;16.10;99.90;;;;;;5044237;28;20478;-81
2022/10/11 09:05:46;;;;;;;25.17;19.50;;;16.20;1.00;;;;;;5039068;28;20460;-81
2022/10/11 09:08:21;;;;;;;21.50;18.80;;;16.10;9.00;;;;;;5040346;28;20482;-80
2022/10/11 09:10:58;;;;;;;23.87;19.20;;;16.20;99.90;;;;;;5043670;28;20494;-81
2022/10/11 09:13:51;;;;;;;23.50;18.90;;;16.20;41.60;;;;;;5039877;28;20454;-80
2022/10/11 09:16:30;;;;;;;27.47;17.73;;;16.20;99.90;;;;;;5048665;28;20473;-81
2022/10/11 09:19:19;;;;;;;22.30;20.00;;;16.20;1.00;;;;;;5041840;28;20490;-81
2022/10/11 09:22:00;;;;;;;21.23;19.20;;;16.20;99.90;;;;;;5046635;28;20477;-81
2022/10/11 09:24:46;;;;;;;26.10;19.10;;;16.10;2.00;;;;;;5045362;28;20834;-81
2022/10/11 09:27:20;;;;;;;22.40;18.57;;;16.10;99.90;;;;;;5047030;28;20511;-81
2022/10/11 09:30:15;;;;;;;22.47;18.87;;;16.00;1.00;;;;;;5035438;28;20601;-81
2022/10/11 09:32:47;;;;;;;21.97;19.87;;;16.10;99.90;;;;;;5046262;28;20457;-81
2022/10/11 09:35:18;;;;;;;21.00;18.80;;;16.00;99.90;;;;;;5039044;28;20514;-81
2022/10/11 09:37:54;;;;;;;23.07;17.90;;;16.00;1.00;;;;;;5046916;28;20462;-81
2022/10/11 09:40:40;;;;;;;21.20;16.93;;;16.00;99.90;;;;;;5038949;28;20493;-81
2022/10/11 09:43:09;;;;;;;20.37;18.27;;;16.10;1.00;;;;;;5038225;28;20533;-81
2022/10/11 09:45:37;;;;;;;19.60;17.30;;;16.00;99.90;;;;;;5049454;28;20508;-81
2022/10/11 09:48:08;;;;;;;21.83;19.00;;;16.00;1.00;;;;;;5049022;28;21080;-82
2022/10/11 09:50:36;;;;;;;19.23;17.30;;;16.00;1.00;;;;;;5042172;28;20466;-81
2022/10/11 09:53:06;;;;;;;21.37;15.70;;;16.00;99.90;;;;;;5045854;28;20454;-81
2022/10/11 09:55:38;;;;;;;19.57;15.30;;;15.90;99.90;;;;;;5049580;28;20468;-81
2022/10/11 09:58:24;;;;;;;18.10;16.20;;;15.90;17.70;;;;;;5048472;28;20958;-80
2022/10/11 10:00:58;;;;;;;18.67;16.40;;;16.00;99.90;;;;;;5046247;28;20459;-80
2022/10/11 10:03:37;;;;;;;17.70;15.77;;;16.00;99.90;;;;;;5044594;28;20527;-80
2022/10/11 10:06:08;;;;;;;18.07;15.90;;;16.00;1.00;;;;;;5044747;28;20557;-80
2022/10/11 10:08:37;;;;;;;22.83;18.43;;;16.00;99.90;;;;;;5043176;28;20827;-81
2022/10/11 10:11:07;;;;;;;19.77;17.63;;;16.10;99.90;;;;;;5042011;28;20823;-81
2022/10/11 10:13:43;;;;;;;26.17;18.13;;;16.10;42.70;;;;;;5040842;28;20451;-81
2022/10/11 10:16:24;;;;;;;21.77;18.67;;;16.20;1.00;;;;;;5051603;28;20462;-81
2022/10/11 10:18:56;;;;;;;22.40;18.63;;;16.10;99.90;;;;;;5050427;28;20858;-81
2022/10/11 10:21:29;;;;;;;25.57;18.40;;;16.10;85.00;;;;;;5041405;28;20529;-81
2022/10/11 10:24:01;;;;;;;25.40;18.43;;;16.10;1.00;;;;;;5040440;28;20484;-80
2022/10/11 10:26:31;;;;;;;20.27;18.17;;;16.20;99.90;;;;;;5049707;28;20564;-81
2022/10/11 10:29:04;;;;;;;20.37;17.03;;;16.10;1.00;;;;;;5047692;28;20564;-81
2022/10/11 10:31:37;;;;;;;21.00;18.00;;;16.30;1.00;;;;;;5046955;28;20497;-80
2022/10/11 10:34:31;;;;;;;21.60;17.57;;;16.20;1.00;;;;;;5046592;28;20539;-81
2022/10/11 10:37:03;;;;;;;21.63;17.47;;;16.30;99.90;;;;;;5043165;28;20442;-81
2022/10/11 10:39:39;;;;;;;19.50;16.53;;;16.20;14.90;;;;;;5047251;28;20501;-81
2022/10/11 10:42:13;;;;;;;20.47;17.70;;;16.20;1.00;;;;;;5043478;28;20462;-80
2022/10/11 10:44:42;;;;;;;20.53;17.83;;;16.20;92.30;;;;;;5050145;28;20455;-80
2022/10/11 10:47:19;;;;;;;21.00;16.70;;;16.20;99.90;;;;;;5050265;28;20473;-81
2022/10/11 10:49:57;;;;;;;24.17;19.10;;;16.20;99.90;;;;;;5049630;28;20871;-81
2022/10/11 10:52:42;;;;;;;22.93;17.73;;;16.20;1.00;;;;;;5050056;28;20483;-81
2022/10/11 10:55:22;;;;;;;21.60;18.30;;;16.10;69.30;;;;;;5039636;28;20577;-81
2022/10/11 10:58:03;;;;;;;21.00;18.10;;;16.10;99.90;;;;;;5046723;28;20459;-81
2022/10/11 11:00:42;;;;;;;20.87;18.30;;;16.10;99.90;;;;;;5041349;28;20585;-80
2022/10/11 11:03:15;;;;;;;22.47;17.50;;;16.10;1.00;;;;;;5044198;28;20518;-80
2022/10/11 11:05:54;;;;;;;21.20;16.80;;;16.20;99.90;;;;;;5046822;28;20442;-81
2022/10/11 11:08:37;;;;;;;20.70;17.23;;;16.30;96.70;;;;;;5042726;28;20460;-82
2022/10/11 11:11:26;;;;;;;22.53;16.97;;;16.20;91.10;;;;;;5051951;28;21304;-80
2022/10/11 11:14:01;;;;;;;26.00;18.60;;;16.20;15.80;;;;;;5044894;28;20458;-81
2022/10/11 11:16:35;;;;;;;20.80;16.97;;;16.30;99.90;;;;;;5049684;28;20497;-80
2022/10/11 11:19:12;;;;;;;22.30;17.30;;;16.30;1.00;;;;;;5043287;28;20484;-81
2022/10/11 11:21:50;;;;;;;18.27;16.57;;;16.30;1.00;;;;;;5044804;28;20454;-80
2022/10/11 11:24:35;;;;;;;25.07;16.80;;;16.40;1.00;;;;;;5047046;28;20512;-81
2022/10/11 11:27:11;;;;;;;18.80;15.67;;;16.30;1.00;;;;;;5038761;28;20478;-81
2022/10/11 11:29:47;;;;;;;18.40;16.50;;;16.30;1.00;;;;;;5052693;28;20486;-81
2022/10/11 11:32:32;;;;;;;20.10;16.70;;;16.30;99.90;;;;;;5042011;28;20458;-81
2022/10/11 11:35:03;;;;;;;19.10;14.93;;;16.30;99.90;;;;;;5042506;28;20524;-81
2022/10/11 11:37:38;;;;;;;19.90;17.57;;;16.40;99.90;;;;;;5041285;28;20465;-81
2022/10/11 11:40:16;;;;;;;24.23;16.27;;;16.30;99.90;;;;;;5037461;28;20474;-81
2022/10/11 11:42:48;;;;;;;16.97;14.80;;;16.30;99.90;;;;;;5044328;28;20467;-80
2022/10/11 11:45:22;;;;;;;18.80;15.80;;;16.30;1.00;;;;;;5047270;28;20454;-81
2022/10/11 11:47:56;;;;;;;16.47;14.87;;;16.40;1.00;;;;;;5054675;28;20949;-80
2022/10/11 11:50:25;;;;;;;21.27;15.43;;;16.30;1.00;;;;;;5047396;28;20475;-80
2022/10/11 11:53:03;;;;;;;21.30;14.83;;;16.40;99.90;;;;;;5044450;28;20455;-81
2022/10/11 11:55:38;;;;;;;19.60;15.87;;;16.30;1.00;;;;;;5040240;28;20502;-80
2022/10/11 11:58:17;;;;;;;18.40;16.27;;;16.20;1.00;;;;;;5043556;28;20537;-80
2022/10/11 12:00:54;;;;;;;17.27;15.20;;;16.20;1.00;;;;;;5044756;28;20466;-80
2022/10/11 12:03:27;;;;;;;18.93;14.97;;;16.20;1.00;;;;;;5046006;28;20485;-80
2022/10/11 12:06:22;;;;;;;25.03;16.27;;;16.20;1.00;;;;;;5051510;28;20474;-81
2022/10/11 12:09:02;;;;;;;22.00;15.23;;;16.20;99.90;;;;;;5039015;28;20475;-81
2022/10/11 12:11:42;;;;;;;16.47;15.00;;;16.20;93.30;;;;;;5040206;28;21072;-81
2022/10/11 12:14:34;;;;;;;23.47;15.97;;;16.40;99.90;;;;;;5043049;28;20451;-80
2022/10/11 12:17:12;;;;;;;17.43;15.73;;;16.40;1.00;;;;;;5039825;28;20494;-80
2022/10/11 12:19:43;;;;;;;18.63;15.50;;;16.40;1.00;;;;;;5043740;28;20994;-81
2022/10/11 12:22:38;;;;;;;19.43;14.70;;;16.40;99.90;;;;;;5046957;28;20698;-81
2022/10/11 12:25:42;;;;;;;16.70;15.13;;;16.30;99.90;;;;;;5046448;28;20490;-81
2022/10/11 12:28:59;;;;;;;20.73;16.30;;;16.30;99.90;;;;;;4981931;28;20512;-81
2022/10/11 12:31:29;;;;;;;19.73;16.80;;;16.40;1.00;;;;;;4938534;28;20463;-81
2022/10/11 12:34:19;;;;;;;21.50;14.60;;;16.40;99.90;;;;;;5023859;28;20461;-81
2022/10/11 12:36:49;;;;;;;14.63;13.13;;;16.50;99.90;;;;;;5044343;28;20440;-81
2022/10/11 12:39:52;;;;;;;15.53;13.80;;;16.50;1.00;;;;;;5043315;28;20467;-81
2022/10/11 12:42:28;;;;;;;18.40;13.23;;;16.50;99.90;;;;;;5044756;28;20541;-81
2022/10/11 12:45:31;;;;;;;18.17;13.60;;;16.50;99.90;;;;;;5044711;28;20482;-81
2022/10/11 12:48:20;;;;;;;17.67;13.23;;;16.60;76.70;;;;;;5047118;28;20458;-80
2022/10/11 12:51:02;;;;;;;17.20;14.47;;;16.60;99.90;;;;;;5038217;28;20454;-81
2022/10/11 12:54:01;;;;;;;16.03;13.13;;;16.70;1.00;;;;;;5041906;28;20469;-80
2022/10/11 12:57:02;;;;;;;13.90;12.20;;;16.60;70.20;;;;;;5029463;28;20464;-81
2022/10/11 12:59:32;;;;;;;20.73;13.87;;;16.60;99.90;;;;;;5043651;28;20470;-82
2022/10/11 13:02:00;;;;;;;15.73;14.07;;;16.60;99.90;;;;;;5045164;28;20455;-81
2022/10/11 13:04:31;;;;;;;15.73;14.03;;;16.70;99.90;;;;;;5041050;28;20482;-80